Phoenix, New York
Current Conditions -  °F | °C
As of 12:54 AM on Wednesday 22 Oct 2014 (Local Time) from KFZY Reporting Station
Light Rain Light Rain  
Wind Chill: 41°   Ceiling: 2600
Heat Index: 46°   Visibility: 4mi
Dew Point: 43°   Wind: 10mph
Humidity: 89%   Direction: 10°N
Pressure: 30.05"   Gusts: NA
Location:  43.23°N, 76.3°W
Report Text: KFZY 220454Z AUTO 01009KT 4SM -RA BR FEW006 OVC026 08/06 A3005 RMK AO2 RAE0357B42 SLP178 P0000 T00780061 401170078
Loading
Personal Weather Stations






























Interactive Weather Map
Tropical Storm Tracking
New forecast layout! Learn more

10-Day Weather Forecast

Advertisements
Track Severe Weather on mobile